Terminal Aerodrome Forecast
Issued by NWS

Home | Current Version | Previous Version | Text Only | Print | Product List | Glossary On
Versions: 1 2 3 4 5 6 7 8 9 10 11 12 13 14
532
FTUS45 KTFX 222340
TAFHLN
TAF
KHLN 222340Z 2300/2324 27008KT P6SM FEW050 SCT150
     FM232000 26015G25KT P6SM SCT100
     FM232300 25015G30KT P6SM BKN070=

USA.gov is the U.S. government's official web portal to all federal, state and local government web resources and services.